Aérodrome :
LOGIN :

S'inscrire | Disclaimer

   EN    FR    IT 

 










Légende :    VFR   VFR Marginal   IFR   IFR Intensif   IFR Très Intensif
Visi : 
Plafond : 
>= 8 km
>= 3000ft
5 à 8 km
1000 à 3000 ft
1500m à 5 km
500 à 1000 ft
800 à 1500m
200 à 500 ft
< 800m
< 200 ft
Symboles :   Orages  Brouillard  Fortes neiges  Fortes précipitations  Vent > 20 kt
SIGMETs :   Divers  Orages  Givrage  Turbulence  Onde Orograph.  Cendres Volcan.







- Altitude de l'aérodrome : 202 ft
- Code IATA : LGW
- Voir les cartes d'approche


EGKK - London Gatwick

DERNIER METAR :
  • 141820Z 23007KT CAVOK 02/01 Q0989

METARs EXPIRÉS :
  • 141750Z 23008KT CAVOK 03/01 Q0988
  • 141720Z 23005KT CAVOK 03/00 Q0989
  • 141650Z 24007KT CAVOK 03/01 Q0989
  • 141620Z 23007KT CAVOK 03/01 Q0989
  • 141550Z 23005KT CAVOK 04/01 Q0989

TAF TAF EGKK
Valide du 14 à 18h jusqu'au 16 à 00h UTC


141706Z 1418/1524 25012KT 9999 SCT022
BECMG 1419/1422 BKN012
PROB30
TEMPO 1419/1424 6000 SHRA
BECMG 1500/1503 FEW015
BECMG 1506/1509 33012KT BKN012
TEMPO 1506/1512 6000 SHRA
PROB30
TEMPO 1506/1512 BKN009
BECMG 1513/1516 SCT015
TEMPO 1516/1524 BKN012
Pas de NOTAMs connus pour ce terrain.
2 SIGMETs publiés pour la FIR London (EGTT) :
 
Turbulence forte
EGTT SIGMET 05 VALID 141900/142300 EGRR
EGTT LONDON FIR SEV TURB FCST SW OF LINE N5000 W00149 - N5152 W00623 SFC/FL060 STNR WKN=
Turbulence forte
EGTT SIGMET 04 VALID 141500/141900 EGRR
EGTT LONDON FIR SEV TURB FCST SW OF LINE N5000 W00119 - N5219 W00533 SFC/FL060 STNR WKN=



MET'MAP, la Météo Aéronautique d'un coup d'oeil ! - Copyright ORBIFLY Décembre 2007 - Disclaimer

ORBIFLY MET'MAP TEAM :

Programmation & Développement : Alexandra Zaïnal
Conception & Développement : Baudouin d'Aumeries
Co-Programmation & Développement : Marc-Olivier Méhu
Soutien technique & logistique : Manuel Goepfert

Contact : metmap@orbifly.com




SOURCES & CREDITS :

   NOAA